Time;durP1;ratioP1;P1;durP2;ratioP2;P2;SDS_P1;SDS_P2;PMS_P1;PMS_P2;Temp;Humidity;BMP_temperature;BMP_pressure;BME280_temperature;BME280_humidity;BME280_pressure;Samples;Min_cycle;Max_cycle;Signal;HPM_P1;HPM_P2
2023/12/17 00:00:15;;;;;;;17.73;10.37;;;;;;;6.59;57.46;99718.81;5030422;28;20195;-73
2023/12/17 00:02:41;;;;;;;15.27;9.33;;;;;;;6.67;57.75;99710.66;5029551;28;20862;-70
2023/12/17 00:05:07;;;;;;;18.10;9.93;;;;;;;6.68;57.37;99704.53;5032655;28;20431;-73
2023/12/17 00:07:33;;;;;;;21.87;10.07;;;;;;;6.75;57.35;99692.91;5030626;28;20274;-71
2023/12/17 00:09:58;;;;;;;23.10;9.50;;;;;;;6.66;57.55;99690.72;5038232;28;20425;-71
2023/12/17 00:12:24;;;;;;;16.20;9.53;;;;;;;6.73;57.74;99700.81;5039695;28;20239;-71
2023/12/17 00:14:49;;;;;;;14.17;9.83;;;;;;;6.70;58.03;99694.88;5029180;28;20272;-74
2023/12/17 00:17:15;;;;;;;15.13;10.50;;;;;;;6.76;57.21;99703.28;5033345;28;20195;-73
2023/12/17 00:19:40;;;;;;;19.50;10.73;;;;;;;6.78;56.98;99697.16;5042722;28;20199;-71
2023/12/17 00:22:05;;;;;;;20.77;10.57;;;;;;;6.73;56.97;99699.97;5039823;28;20664;-72
2023/12/17 00:24:31;;;;;;;16.90;10.70;;;;;;;6.68;56.84;99709.75;5041717;28;20613;-71
2023/12/17 00:26:57;;;;;;;16.73;10.67;;;;;;;6.63;57.14;99709.09;5030613;28;20195;-71
2023/12/17 00:29:23;;;;;;;26.37;10.13;;;;;;;6.51;57.50;99716.53;5033376;28;20198;-71
2023/12/17 00:31:48;;;;;;;15.57;10.17;;;;;;;6.57;57.49;99718.03;5039314;28;20957;-71
2023/12/17 00:34:14;;;;;;;16.70;8.93;;;;;;;6.55;57.36;99712.84;5034980;28;20474;-73
2023/12/17 00:36:39;;;;;;;17.27;10.37;;;;;;;6.60;57.02;99704.88;5042558;28;20195;-72
2023/12/17 00:39:05;;;;;;;17.23;9.57;;;;;;;6.57;56.98;99705.81;5030857;28;20188;-71
2023/12/17 00:41:31;;;;;;;16.50;9.90;;;;;;;6.57;57.72;99710.19;5031979;28;20243;-70
2023/12/17 00:43:57;;;;;;;16.50;10.60;;;;;;;6.63;57.62;99717.75;5031521;28;20216;-70
2023/12/17 00:46:22;;;;;;;15.07;9.90;;;;;;;6.65;57.28;99707.28;5035006;28;20482;-70
2023/12/17 00:48:48;;;;;;;22.03;10.90;;;;;;;6.63;57.49;99698.66;5029200;28;20183;-71
2023/12/17 00:51:14;;;;;;;15.60;9.87;;;;;;;6.44;57.80;99715.06;5029523;28;20782;-72
2023/12/17 00:53:39;;;;;;;15.60;9.90;;;;;;;6.43;57.78;99715.97;5038924;28;20668;-71
2023/12/17 00:56:05;;;;;;;16.80;10.63;;;;;;;6.41;57.50;99720.44;5032476;28;20267;-71
2023/12/17 00:58:30;;;;;;;20.30;10.00;;;;;;;6.48;57.42;99721.84;5037993;28;20732;-70
2023/12/17 01:00:56;;;;;;;16.03;10.03;;;;;;;6.45;57.24;99717.63;5035302;28;20239;-71
2023/12/17 01:03:21;;;;;;;19.63;9.90;;;;;;;6.50;56.94;99714.81;5038970;28;20216;-71
2023/12/17 01:05:47;;;;;;;17.33;10.27;;;;;;;6.45;57.46;99712.41;5039672;28;20222;-70
2023/12/17 01:08:12;;;;;;;16.63;9.63;;;;;;;6.51;57.45;99708.72;5032716;28;20633;-71
2023/12/17 01:10:38;;;;;;;15.80;9.83;;;;;;;6.51;57.61;99705.25;5042011;28;20240;-71
2023/12/17 01:13:03;;;;;;;12.50;9.00;;;;;;;6.37;57.41;99703.22;5035548;28;20293;-71
2023/12/17 01:15:29;;;;;;;14.23;9.23;;;;;;;6.45;57.79;99706.34;5027666;28;20202;-71
2023/12/17 01:17:54;;;;;;;17.63;8.63;;;;;;;6.50;58.09;99712.22;5035348;28;20191;-72
2023/12/17 01:20:21;;;;;;;14.80;8.77;;;;;;;6.58;57.78;99717.09;5031012;28;20294;-71
2023/12/17 01:22:46;;;;;;;18.00;9.93;;;;;;;6.54;57.55;99721.63;5042295;28;20580;-71
2023/12/17 01:25:11;;;;;;;12.33;9.33;;;;;;;6.33;57.68;99723.34;5038157;28;20227;-71
2023/12/17 01:27:37;;;;;;;12.73;8.80;;;;;;;6.35;57.81;99720.69;5028397;28;20198;-72
2023/12/17 01:30:02;;;;;;;14.43;9.13;;;;;;;6.43;57.27;99715.97;5037195;28;20215;-71
2023/12/17 01:32:28;;;;;;;14.70;8.57;;;;;;;6.45;57.98;99727.19;5033549;28;20277;-70
2023/12/17 01:34:53;;;;;;;13.87;9.87;;;;;;;6.44;57.38;99736.78;5026168;28;20220;-71
2023/12/17 01:37:19;;;;;;;14.40;9.50;;;;;;;6.50;57.16;99734.81;5045295;28;20269;-71
2023/12/17 01:39:44;;;;;;;14.20;9.40;;;;;;;6.43;56.81;99735.09;5039886;28;20207;-72
2023/12/17 01:42:10;;;;;;;16.00;9.80;;;;;;;6.37;57.45;99732.72;5037470;28;20270;-72
2023/12/17 01:44:35;;;;;;;15.27;9.50;;;;;;;6.39;57.28;99732.66;5033635;28;20328;-71
2023/12/17 01:47:01;;;;;;;14.50;9.73;;;;;;;6.38;57.82;99736.19;5036676;28;20202;-71
2023/12/17 01:49:26;;;;;;;14.83;8.97;;;;;;;6.43;57.66;99734.22;5036391;28;20570;-70
2023/12/17 01:51:52;;;;;;;15.37;9.33;;;;;;;6.32;57.94;99736.44;5030893;28;20257;-70
2023/12/17 01:54:18;;;;;;;19.10;8.87;;;;;;;6.25;58.69;99735.81;5036193;28;20217;-72
2023/12/17 01:56:44;;;;;;;12.20;8.60;;;;;;;6.24;59.19;99729.78;5035128;28;20446;-71
2023/12/17 01:59:09;;;;;;;15.43;8.90;;;;;;;6.41;59.09;99726.47;5032552;28;21144;-71
2023/12/17 02:01:35;;;;;;;13.07;9.13;;;;;;;6.41;58.43;99734.28;5034302;28;20294;-71
2023/12/17 02:04:00;;;;;;;9.70;8.00;;;;;;;6.41;59.21;99733.47;5028511;28;20595;-70
2023/12/17 02:06:26;;;;;;;15.53;9.60;;;;;;;6.47;58.62;99742.78;5038804;28;20218;-70
2023/12/17 02:08:51;;;;;;;11.00;8.93;;;;;;;6.53;57.74;99739.91;5034773;28;20851;-72
2023/12/17 02:11:17;;;;;;;15.63;8.73;;;;;;;6.54;57.80;99741.59;5029896;28;20302;-71
2023/12/17 02:13:42;;;;;;;13.13;9.00;;;;;;;6.48;58.26;99734.06;5040598;28;20207;-70
2023/12/17 02:16:09;;;;;;;10.83;7.83;;;;;;;6.53;57.81;99726.88;5030845;28;20238;-71
2023/12/17 02:18:35;;;;;;;13.30;8.60;;;;;;;6.36;57.88;99728.44;5038717;28;20566;-72
2023/12/17 02:21:00;;;;;;;11.47;9.00;;;;;;;6.21;58.77;99729.91;5035561;28;20444;-72
2023/12/17 02:23:26;;;;;;;16.53;8.60;;;;;;;6.26;58.79;99737.53;5014825;28;20208;-70
2023/12/17 02:25:51;;;;;;;13.33;9.20;;;;;;;6.19;58.82;99736.94;5032425;28;20187;-71
2023/12/17 02:28:17;;;;;;;16.37;9.20;;;;;;;6.23;58.91;99755.91;5030244;28;20636;-71
2023/12/17 02:30:42;;;;;;;17.50;10.20;;;;;;;6.24;58.59;99748.03;5041731;28;20623;-69
2023/12/17 02:33:08;;;;;;;15.57;9.90;;;;;;;6.38;58.33;99741.41;5036713;28;20211;-70
2023/12/17 02:35:33;;;;;;;19.53;10.40;;;;;;;6.39;58.06;99743.09;5017465;28;20202;-72
2023/12/17 02:37:58;;;;;;;17.40;10.23;;;;;;;6.41;57.97;99736.06;5036883;28;20672;-70
2023/12/17 02:40:24;;;;;;;13.50;10.00;;;;;;;6.42;57.62;99732.56;5036529;28;20633;-73
2023/12/17 02:42:49;;;;;;;14.30;9.73;;;;;;;6.35;57.78;99731.09;5035212;28;20242;-70
2023/12/17 02:45:15;;;;;;;16.67;9.67;;;;;;;6.37;57.68;99737.94;5016094;28;20283;-70
2023/12/17 02:47:40;;;;;;;15.60;10.20;;;;;;;6.40;58.06;99744.78;5028709;28;20213;-71
2023/12/17 02:50:06;;;;;;;12.77;8.90;;;;;;;6.47;57.71;99745.38;5041673;28;20301;-70
2023/12/17 02:52:32;;;;;;;12.37;10.23;;;;;;;6.51;57.81;99736.50;5048040;28;20210;-72
2023/12/17 02:54:57;;;;;;;17.73;10.63;;;;;;;6.53;57.64;99727.75;5037947;28;20931;-71
2023/12/17 02:57:25;;;;;;;17.70;11.30;;;;;;;6.54;57.46;99731.16;5039343;28;20195;-72
2023/12/17 02:59:53;;;;;;;13.60;9.50;;;;;;;6.42;57.43;99724.75;5048525;28;20183;-73
2023/12/17 03:02:19;;;;;;;16.93;10.23;;;;;;;6.25;57.64;99715.84;5029895;28;20556;-72
2023/12/17 03:04:45;;;;;;;12.63;9.33;;;;;;;6.24;58.18;99708.09;5037518;28;20430;-72
2023/12/17 03:07:10;;;;;;;12.10;9.00;;;;;;;6.22;57.81;99710.75;5036507;28;20521;-69
2023/12/17 03:09:36;;;;;;;13.83;9.50;;;;;;;6.26;57.58;99707.13;5031454;28;20591;-74
2023/12/17 03:12:02;;;;;;;16.97;10.63;;;;;;;6.21;57.86;99705.63;5032512;28;20226;-72
2023/12/17 03:14:30;;;;;;;15.53;10.20;;;;;;;6.29;57.73;99707.00;5031772;28;20260;-70
2023/12/17 03:16:56;;;;;;;16.40;9.53;;;;;;;6.34;57.80;99708.56;5043180;28;20437;-71
2023/12/17 03:19:21;;;;;;;13.90;10.00;;;;;;;6.22;57.85;99705.56;5030241;28;20993;-71
2023/12/17 03:21:47;;;;;;;14.80;9.10;;;;;;;6.15;58.55;99693.72;5033330;28;20302;-70
2023/12/17 03:24:12;;;;;;;15.73;10.10;;;;;;;6.15;58.29;99696.31;5030717;28;20219;-71
2023/12/17 03:26:37;;;;;;;14.60;9.70;;;;;;;6.16;58.31;99700.63;5035549;28;20390;-72
2023/12/17 03:29:03;;;;;;;14.70;9.60;;;;;;;6.23;58.37;99696.84;5035088;28;20757;-69
2023/12/17 03:31:28;;;;;;;15.00;9.37;;;;;;;6.25;57.62;99688.94;5043853;28;20214;-72
2023/12/17 03:33:54;;;;;;;19.60;10.30;;;;;;;6.19;57.79;99690.03;5039160;28;20207;-71
2023/12/17 03:36:19;;;;;;;13.50;10.07;;;;;;;6.25;57.15;99695.03;5032059;28;20538;-71
2023/12/17 03:38:45;;;;;;;15.50;10.10;;;;;;;6.21;57.41;99679.59;5036663;28;20186;-71
2023/12/17 03:41:21;;;;;;;13.27;9.63;;;;;;;6.13;57.70;99677.28;5046803;28;20793;-73
2023/12/17 03:43:47;;;;;;;15.57;10.30;;;;;;;6.21;57.20;99677.81;5030690;28;20461;-71
2023/12/17 03:46:13;;;;;;;15.13;10.37;;;;;;;6.09;57.27;99668.78;5042963;28;20438;-70
2023/12/17 03:48:38;;;;;;;12.40;8.60;;;;;;;6.05;57.88;99674.19;5031292;28;20453;-71
2023/12/17 03:51:04;;;;;;;15.60;9.50;;;;;;;5.94;57.76;99665.00;5042255;28;20278;-72
2023/12/17 03:53:29;;;;;;;14.80;9.20;;;;;;;5.91;57.72;99664.28;5040546;28;20241;-71
2023/12/17 03:55:55;;;;;;;13.70;10.33;;;;;;;5.80;58.13;99656.88;5037080;28;20619;-72
2023/12/17 03:58:20;;;;;;;12.60;9.00;;;;;;;5.98;58.84;99658.75;5044624;28;20724;-73
2023/12/17 04:00:45;;;;;;;13.27;9.27;;;;;;;5.99;58.16;99660.47;5040318;28;20607;-71
2023/12/17 04:03:11;;;;;;;16.13;9.57;;;;;;;6.08;58.50;99663.59;5041195;28;20721;-70
2023/12/17 04:05:36;;;;;;;15.70;9.30;;;;;;;6.06;58.49;99662.81;5037787;28;20624;-73
2023/12/17 04:08:02;;;;;;;14.40;9.10;;;;;;;6.10;58.13;99664.41;5036712;28;20188;-74
2023/12/17 04:10:28;;;;;;;12.43;9.27;;;;;;;6.12;58.10;99667.78;5029659;28;20282;-71
2023/12/17 04:12:53;;;;;;;11.53;8.93;;;;;;;6.13;58.49;99652.09;5037295;28;20537;-71
2023/12/17 04:15:19;;;;;;;12.40;9.40;;;;;;;6.08;58.22;99661.00;5038800;28;20198;-72
2023/12/17 04:17:44;;;;;;;17.03;9.10;;;;;;;5.98;58.47;99653.56;5039776;28;20676;-70
2023/12/17 04:20:10;;;;;;;14.50;9.60;;;;;;;6.06;58.57;99658.47;5038885;28;20717;-72
2023/12/17 04:22:35;;;;;;;15.07;9.83;;;;;;;5.98;58.49;99663.13;5026605;28;20212;-72
2023/12/17 04:25:01;;;;;;;12.47;8.87;;;;;;;5.96;58.24;99649.31;5030351;28;20970;-71
2023/12/17 04:27:26;;;;;;;14.70;9.37;;;;;;;6.01;58.34;99654.38;5041046;28;20283;-71
2023/12/17 04:29:52;;;;;;;13.37;9.97;;;;;;;6.07;58.55;99662.78;5032843;28;20206;-72
2023/12/17 04:32:18;;;;;;;12.80;9.23;;;;;;;6.00;58.49;99653.50;5041123;28;20225;-71
2023/12/17 04:34:43;;;;;;;16.70;10.17;;;;;;;5.77;59.21;99654.44;5036505;28;20191;-71
2023/12/17 04:37:08;;;;;;;12.27;9.07;;;;;;;5.87;59.15;99660.97;5034196;28;20200;-72
2023/12/17 04:39:34;;;;;;;12.83;9.73;;;;;;;5.84;59.01;99661.06;5037884;28;20233;-72
2023/12/17 04:41:59;;;;;;;14.23;9.50;;;;;;;5.87;59.00;99658.34;5032297;28;20302;-72
2023/12/17 04:44:25;;;;;;;16.07;10.13;;;;;;;5.86;59.41;99656.66;5040399;28;20774;-72
2023/12/17 04:46:51;;;;;;;15.10;10.20;;;;;;;5.92;59.18;99653.78;5040174;28;20192;-72
2023/12/17 04:49:16;;;;;;;13.30;9.23;;;;;;;5.83;59.54;99656.78;5037513;28;20194;-71
2023/12/17 04:51:42;;;;;;;15.50;10.20;;;;;;;5.87;59.28;99649.69;5017234;28;20184;-72
2023/12/17 04:54:07;;;;;;;11.67;9.60;;;;;;;5.97;59.09;99651.03;5029393;28;20950;-71
2023/12/17 04:56:32;;;;;;;15.50;10.53;;;;;;;5.89;58.61;99651.34;5038113;28;20562;-71
2023/12/17 04:58:58;;;;;;;14.47;9.87;;;;;;;5.82;59.16;99649.88;5035242;28;20249;-71
2023/12/17 05:01:23;;;;;;;12.20;9.50;;;;;;;5.77;59.03;99644.03;5044477;28;20194;-72
2023/12/17 05:03:49;;;;;;;15.00;10.30;;;;;;;5.68;59.54;99643.47;5033087;28;20216;-72
2023/12/17 05:06:14;;;;;;;12.10;9.80;;;;;;;5.52;59.94;99648.44;5031869;28;20230;-71
2023/12/17 05:08:40;;;;;;;16.43;10.90;;;;;;;5.50;59.99;99644.22;5045061;28;20283;-70
2023/12/17 05:11:05;;;;;;;14.30;9.97;;;;;;;5.37;59.88;99642.09;5018655;28;20208;-74
2023/12/17 05:13:31;;;;;;;14.03;10.13;;;;;;;5.36;60.20;99642.13;5034193;28;20216;-71
2023/12/17 05:15:56;;;;;;;13.47;10.40;;;;;;;5.44;60.53;99642.69;5036532;28;20270;-73
2023/12/17 05:18:21;;;;;;;12.93;9.53;;;;;;;5.38;60.74;99633.38;5043540;28;20201;-74
2023/12/17 05:20:48;;;;;;;16.67;10.80;;;;;;;5.36;60.48;99630.00;5023483;28;20278;-71
2023/12/17 05:23:13;;;;;;;18.77;11.10;;;;;;;5.26;60.95;99628.66;5026315;28;20315;-70
2023/12/17 05:25:39;;;;;;;15.57;11.57;;;;;;;5.43;60.60;99627.13;5033176;28;20518;-72
2023/12/17 05:28:05;;;;;;;14.77;10.63;;;;;;;5.57;60.06;99626.59;5036529;28;20203;-70
2023/12/17 05:30:30;;;;;;;13.30;9.60;;;;;;;5.50;60.05;99618.19;5034005;28;20438;-69
2023/12/17 05:32:56;;;;;;;13.47;9.80;;;;;;;5.57;59.97;99614.44;5004850;28;20277;-72
2023/12/17 05:35:21;;;;;;;14.40;10.80;;;;;;;5.59;60.31;99607.41;5025436;28;20230;-71
2023/12/17 05:37:47;;;;;;;15.30;10.43;;;;;;;5.65;60.16;99616.72;5038437;28;20192;-75
2023/12/17 05:40:12;;;;;;;14.17;9.90;;;;;;;5.64;60.11;99613.28;5030425;28;20272;-71
2023/12/17 05:42:38;;;;;;;13.90;9.97;;;;;;;5.64;60.14;99613.28;5037871;28;20215;-73
2023/12/17 05:45:03;;;;;;;15.33;10.60;;;;;;;5.63;59.97;99608.13;5041950;28;20197;-72
2023/12/17 05:47:30;;;;;;;15.33;9.80;;;;;;;5.57;60.70;99603.19;5039734;28;20253;-72
2023/12/17 05:49:55;;;;;;;17.17;10.50;;;;;;;5.56;60.41;99604.94;5047918;28;20191;-72
2023/12/17 05:52:21;;;;;;;15.40;10.90;;;;;;;5.51;60.31;99601.69;5032237;28;20503;-73
2023/12/17 05:54:46;;;;;;;14.60;9.83;;;;;;;5.56;60.27;99602.31;5032489;28;20222;-73
2023/12/17 05:57:12;;;;;;;19.43;11.20;;;;;;;5.58;60.46;99604.88;5036615;28;20197;-72
2023/12/17 05:59:37;;;;;;;17.20;10.63;;;;;;;5.68;60.43;99616.59;5025371;28;20188;-72
2023/12/17 06:02:03;;;;;;;15.20;10.43;;;;;;;5.61;60.04;99612.53;5052171;28;20294;-70
2023/12/17 06:04:28;;;;;;;13.47;9.87;;;;;;;5.65;60.51;99616.72;5035663;28;20727;-71
2023/12/17 06:06:55;;;;;;;16.27;11.00;;;;;;;5.71;60.30;99618.22;5043261;28;20255;-71
2023/12/17 06:09:22;;;;;;;15.17;10.40;;;;;;;5.77;60.34;99615.38;5038490;28;20197;-72
2023/12/17 06:11:47;;;;;;;14.27;9.90;;;;;;;5.81;60.48;99617.81;5038673;28;20438;-70
2023/12/17 06:14:13;;;;;;;12.13;9.83;;;;;;;5.84;60.42;99622.03;5032704;28;20450;-73
2023/12/17 06:16:44;;;;;;;13.47;10.20;;;;;;;5.89;60.22;99625.31;5029155;28;20253;-72
2023/12/17 06:19:13;;;;;;;14.27;9.10;;;;;;;5.95;59.92;99632.00;5037137;28;20196;-71
2023/12/17 06:21:38;;;;;;;16.13;11.10;;;;;;;5.98;59.79;99631.88;5034469;28;20435;-71
2023/12/17 06:24:04;;;;;;;24.60;16.33;;;;;;;5.86;59.15;99635.84;5043589;28;21154;-71
2023/12/17 06:26:30;;;;;;;29.10;20.60;;;;;;;5.89;58.76;99634.84;5028339;28;20191;-71
2023/12/17 06:28:55;;;;;;;40.30;28.97;;;;;;;5.86;58.55;99630.63;5052509;28;20561;-71
2023/12/17 06:31:21;;;;;;;58.73;40.50;;;;;;;5.88;58.59;99633.16;5043061;28;20537;-71
2023/12/17 06:33:47;;;;;;;46.17;33.30;;;;;;;5.85;58.64;99631.53;5034706;28;20750;-71
2023/12/17 06:36:12;;;;;;;45.10;33.10;;;;;;;5.83;58.76;99639.41;5021682;28;20447;-71
2023/12/17 06:38:39;;;;;;;35.13;25.03;;;;;;;5.84;59.02;99635.03;5026137;28;20569;-71
2023/12/17 06:41:05;;;;;;;29.53;21.73;;;;;;;5.87;58.69;99634.06;5043331;28;20194;-70
2023/12/17 06:43:30;;;;;;;23.60;17.63;;;;;;;5.86;58.60;99632.41;5034509;28;20468;-73
2023/12/17 06:45:55;;;;;;;21.97;15.43;;;;;;;5.89;58.53;99638.31;5047308;28;20210;-72
2023/12/17 06:48:21;;;;;;;20.23;15.33;;;;;;;5.88;58.58;99644.44;5038241;28;20187;-71
2023/12/17 06:50:46;;;;;;;16.13;12.93;;;;;;;5.92;58.50;99640.78;5032725;28;20207;-72
2023/12/17 06:53:17;;;;;;;16.97;13.00;;;;;;;5.94;58.29;99643.34;5041789;28;20207;-73
2023/12/17 06:55:43;;;;;;;19.57;14.33;;;;;;;5.91;58.21;99649.53;5044660;28;20455;-71
2023/12/17 06:58:08;;;;;;;18.47;14.80;;;;;;;5.90;57.98;99642.63;5046616;28;20437;-72
2023/12/17 07:00:37;;;;;;;16.00;12.80;;;;;;;5.80;58.23;99642.13;5029501;28;20512;-71
2023/12/17 07:03:02;;;;;;;18.57;13.53;;;;;;;5.78;58.43;99648.31;5044374;28;20302;-68
2023/12/17 07:05:28;;;;;;;20.37;12.97;;;;;;;5.82;58.37;99650.72;5041073;28;20430;-72
2023/12/17 07:07:53;;;;;;;15.00;11.43;;;;;;;5.89;58.39;99656.53;5046335;28;20225;-71
2023/12/17 07:10:20;;;;;;;15.50;11.10;;;;;;;5.92;58.02;99656.38;5039222;28;20282;-71
2023/12/17 07:12:45;;;;;;;14.03;10.63;;;;;;;5.93;57.81;99647.66;5039220;28;20584;-70
2023/12/17 07:15:11;;;;;;;12.83;9.20;;;;;;;5.90;58.84;99654.78;5039457;28;20434;-69
2023/12/17 07:17:36;;;;;;;12.43;8.90;;;;;;;5.91;58.71;99654.72;5040793;28;20249;-70
2023/12/17 07:20:02;;;;;;;15.13;10.00;;;;;;;5.99;58.49;99647.47;5034011;28;20220;-72
2023/12/17 07:22:28;;;;;;;14.53;10.00;;;;;;;6.04;58.34;99652.47;5034187;28;20252;-70
2023/12/17 07:24:53;;;;;;;10.77;9.27;;;;;;;6.12;58.78;99641.75;5038479;28;20451;-70
2023/12/17 07:27:19;;;;;;;13.53;11.40;;;;;;;6.20;58.77;99647.47;5018940;28;20187;-71
2023/12/17 07:29:44;;;;;;;16.33;10.03;;;;;;;6.31;58.46;99647.03;5034877;28;20194;-70
2023/12/17 07:32:10;;;;;;;13.17;10.23;;;;;;;6.40;59.09;99644.00;5043697;28;20277;-72
2023/12/17 07:34:35;;;;;;;17.03;10.73;;;;;;;6.44;58.34;99642.13;5036977;28;20222;-71
2023/12/17 07:37:01;;;;;;;14.53;10.30;;;;;;;6.50;58.54;99636.66;5034551;28;20564;-68
2023/12/17 07:39:26;;;;;;;11.50;9.27;;;;;;;6.48;57.58;99640.25;5030088;28;20196;-71
2023/12/17 07:41:52;;;;;;;12.67;9.90;;;;;;;6.41;58.09;99632.69;5033629;28;20730;-72
2023/12/17 07:44:18;;;;;;;10.10;8.63;;;;;;;6.33;57.99;99628.72;5047849;28;20250;-71
2023/12/17 07:46:43;;;;;;;11.87;8.70;;;;;;;6.24;58.37;99635.16;5033964;28;20195;-70
2023/12/17 07:49:09;;;;;;;13.80;9.40;;;;;;;6.19;58.40;99637.97;5037386;28;20273;-70
2023/12/17 07:51:35;;;;;;;10.73;8.77;;;;;;;6.25;58.30;99636.84;5044853;28;20229;-72
2023/12/17 07:54:00;;;;;;;10.97;8.90;;;;;;;6.31;58.80;99636.59;5043869;28;20242;-70
2023/12/17 07:56:26;;;;;;;11.53;9.63;;;;;;;6.37;58.62;99636.31;5044845;28;20532;-71
2023/12/17 07:58:52;;;;;;;11.17;8.70;;;;;;;6.47;59.03;99636.78;5036880;28;20218;-70
2023/12/17 08:01:27;;;;;;;13.97;9.30;;;;;;;6.52;58.55;99636.56;5035998;28;20446;-71
2023/12/17 08:03:52;;;;;;;11.53;9.27;;;;;;;6.71;58.18;99637.47;5042528;28;20734;-72
2023/12/17 08:06:18;;;;;;;11.47;8.80;;;;;;;7.35;57.30;99629.38;5020162;28;20562;-71
2023/12/17 08:08:43;;;;;;;12.03;8.67;;;;;;;8.08;56.63;99628.47;5037189;28;20187;-70
2023/12/17 08:11:12;;;;;;;9.63;8.63;;;;;;;8.78;55.96;99632.78;5041472;28;20194;-71
2023/12/17 08:13:37;;;;;;;12.70;8.40;;;;;;;9.48;54.07;99629.84;5038101;28;20200;-71
2023/12/17 08:16:03;;;;;;;10.10;8.03;;;;;;;10.06;52.56;99627.47;5034115;28;20459;-70
2023/12/17 08:18:28;;;;;;;11.60;8.30;;;;;;;10.42;49.01;99619.19;5029063;28;20230;-71
2023/12/17 08:20:54;;;;;;;14.90;8.27;;;;;;;10.55;48.40;99614.06;5037890;28;20191;-70
2023/12/17 08:23:19;;;;;;;9.47;7.30;;;;;;;10.54;47.56;99622.88;4998670;28;20219;-69
2023/12/17 08:25:45;;;;;;;9.40;7.37;;;;;;;10.64;47.80;99627.56;5020090;28;20188;-71
2023/12/17 08:28:10;;;;;;;9.40;7.20;;;;;;;10.93;46.43;99624.94;5029637;28;20282;-71
2023/12/17 08:30:38;;;;;;;10.30;7.17;;;;;;;10.98;46.57;99625.47;5020231;28;20740;-70
2023/12/17 08:33:03;;;;;;;10.57;7.10;;;;;;;11.08;47.18;99629.22;5038467;28;20239;-70
2023/12/17 08:35:31;;;;;;;8.50;7.40;;;;;;;11.13;46.30;99624.50;5030145;28;20533;-71
2023/12/17 08:38:03;;;;;;;8.97;7.73;;;;;;;11.28;46.59;99622.69;5033664;28;20187;-72
2023/12/17 08:40:29;;;;;;;12.97;8.20;;;;;;;11.31;45.92;99621.66;5032942;28;21032;-70
2023/12/17 08:42:54;;;;;;;8.40;7.60;;;;;;;11.57;45.81;99622.59;5025413;28;20470;-70
2023/12/17 08:45:20;;;;;;;11.57;8.50;;;;;;;11.39;46.00;99621.19;5036581;28;20514;-69
2023/12/17 08:47:45;;;;;;;8.80;7.20;;;;;;;11.52;45.44;99622.91;5018818;28;20720;-71
2023/12/17 08:50:11;;;;;;;11.47;7.67;;;;;;;11.31;45.94;99622.50;5038463;28;20203;-70
2023/12/17 08:52:36;;;;;;;9.30;7.67;;;;;;;11.13;46.12;99618.44;5019303;28;20291;-72
2023/12/17 08:55:02;;;;;;;8.93;7.60;;;;;;;10.98;46.70;99610.59;5039011;28;20191;-71
2023/12/17 08:57:27;;;;;;;9.87;7.60;;;;;;;11.14;46.53;99610.44;5022564;28;20684;-71
2023/12/17 08:59:53;;;;;;;10.57;7.40;;;;;;;11.06;46.32;99602.22;5041154;28;20218;-72
2023/12/17 09:02:19;;;;;;;9.13;7.73;;;;;;;11.21;45.98;99601.22;5037971;28;20557;-73
2023/12/17 09:04:44;;;;;;;9.47;7.80;;;;;;;11.09;46.34;99601.19;5043924;28;20457;-70
2023/12/17 09:07:10;;;;;;;8.57;7.40;;;;;;;11.10;45.73;99603.69;5035259;28;20231;-68
2023/12/17 09:09:35;;;;;;;9.80;7.57;;;;;;;11.20;46.25;99604.81;5051514;28;20183;-71
2023/12/17 09:12:01;;;;;;;7.60;6.80;;;;;;;11.48;45.68;99589.91;5046518;28;20184;-71
2023/12/17 09:14:26;;;;;;;9.63;7.53;;;;;;;11.44;45.48;99584.94;5046227;28;20212;-73
2023/12/17 09:16:52;;;;;;;11.77;8.90;;;;;;;11.55;45.79;99592.13;5059006;28;20261;-71
2023/12/17 09:19:17;;;;;;;9.47;7.57;;;;;;;11.57;45.20;99593.72;5048567;28;20192;-71
2023/12/17 09:21:43;;;;;;;7.57;6.77;;;;;;;11.69;45.08;99599.97;5046917;28;20184;-72
2023/12/17 09:24:08;;;;;;;9.00;7.30;;;;;;;11.91;45.65;99595.91;5032439;28;20397;-73
2023/12/17 09:26:34;;;;;;;10.93;8.10;;;;;;;12.08;44.31;99594.81;5049609;28;20191;-71
2023/12/17 09:28:59;;;;;;;8.80;6.90;;;;;;;12.39;45.30;99597.97;5038958;28;20191;-74
2023/12/17 09:31:26;;;;;;;9.33;7.53;;;;;;;12.80;44.22;99599.50;5022698;28;20175;-72
2023/12/17 09:33:51;;;;;;;10.77;8.80;;;;;;;13.06;44.53;99602.94;5021856;28;20801;-71
2023/12/17 09:36:16;;;;;;;16.93;8.70;;;;;;;13.39;43.52;99591.84;5029148;28;20490;-71
2023/12/17 09:38:42;;;;;;;10.37;8.43;;;;;;;13.64;42.82;99590.94;5027864;28;20203;-71
2023/12/17 09:41:08;;;;;;;11.47;9.57;;;;;;;13.95;42.20;99596.53;5024603;28;20202;-69
2023/12/17 09:43:33;;;;;;;10.57;9.47;;;;;;;14.17;42.38;99605.47;5036951;28;20317;-72
2023/12/17 09:45:59;;;;;;;9.90;8.20;;;;;;;14.28;40.94;99605.50;5011561;28;21013;-70
2023/12/17 09:48:25;;;;;;;9.70;8.70;;;;;;;14.47;40.07;99599.66;5030558;28;20277;-72
2023/12/17 09:50:50;;;;;;;9.40;8.40;;;;;;;14.47;40.06;99594.38;5032871;28;20274;-72
2023/12/17 09:53:15;;;;;;;8.37;7.40;;;;;;;14.73;40.32;99595.00;5035904;28;20293;-73
2023/12/17 09:55:41;;;;;;;11.97;7.67;;;;;;;15.01;42.01;99594.59;5034926;28;20270;-72
2023/12/17 09:58:06;;;;;;;17.00;7.20;;;;;;;15.40;39.57;99588.88;5023811;28;20626;-72
2023/12/17 10:00:33;;;;;;;9.17;7.13;;;;;;;15.39;38.89;99585.38;5039600;28;20669;-71
2023/12/17 10:03:03;;;;;;;9.37;7.77;;;;;;;15.47;39.34;99579.47;5031501;28;20591;-69
2023/12/17 10:05:30;;;;;;;8.17;7.33;;;;;;;15.49;38.19;99581.03;5031014;28;20915;-72
2023/12/17 10:07:55;;;;;;;9.20;7.23;;;;;;;15.62;38.42;99583.50;5038651;28;20432;-71
2023/12/17 10:10:21;;;;;;;9.33;7.60;;;;;;;15.22;37.94;99580.66;5029403;28;20426;-70
2023/12/17 10:12:47;;;;;;;10.87;7.93;;;;;;;15.47;39.50;99576.81;5028198;28;20208;-71
2023/12/17 10:15:12;;;;;;;9.93;8.20;;;;;;;15.84;39.08;99572.94;5038541;28;20195;-71
2023/12/17 10:17:38;;;;;;;14.50;9.90;;;;;;;16.05;39.13;99571.16;5037729;28;20943;-71
2023/12/17 10:20:04;;;;;;;10.33;8.87;;;;;;;15.87;37.88;99564.81;5034731;28;20218;-72
2023/12/17 10:22:29;;;;;;;11.33;8.20;;;;;;;15.93;37.78;99566.91;5039032;28;20235;-71
2023/12/17 10:24:55;;;;;;;11.00;8.47;;;;;;;15.92;38.07;99560.81;5037789;28;20515;-72
2023/12/17 10:27:21;;;;;;;10.13;7.83;;;;;;;15.57;38.46;99550.47;5033129;28;20255;-71
2023/12/17 10:29:51;;;;;;;17.33;9.40;;;;;;;15.75;38.64;99567.44;5035862;28;20198;-73
2023/12/17 10:32:22;;;;;;;11.90;8.90;;;;;;;15.97;37.70;99560.41;5035544;28;20447;-72
2023/12/17 10:34:51;;;;;;;10.17;8.80;;;;;;;16.04;38.28;99553.63;5033753;28;20437;-70
2023/12/17 10:37:21;;;;;;;11.07;8.30;;;;;;;16.42;37.90;99552.16;5030510;28;20561;-71
2023/12/17 10:39:50;;;;;;;7.93;7.13;;;;;;;16.69;37.29;99548.06;5035101;28;20453;-70
2023/12/17 10:42:17;;;;;;;8.30;7.50;;;;;;;16.94;36.63;99542.44;5025979;28;20552;-73
2023/12/17 10:44:44;;;;;;;8.43;7.53;;;;;;;17.14;36.88;99540.66;5032326;28;20422;-70
2023/12/17 10:47:11;;;;;;;10.47;8.80;;;;;;;17.03;35.42;99541.63;5040954;28;20478;-71
2023/12/17 10:49:36;;;;;;;11.67;7.87;;;;;;;17.11;35.69;99540.94;5034785;28;20429;-72
2023/12/17 10:52:02;;;;;;;11.43;8.60;;;;;;;16.51;36.43;99537.28;5043664;28;20433;-73
2023/12/17 10:54:27;;;;;;;9.60;7.63;;;;;;;16.68;35.97;99534.97;5034289;28;20265;-71
2023/12/17 10:56:54;;;;;;;8.30;7.50;;;;;;;16.67;36.72;99528.00;5042848;28;20183;-70
2023/12/17 10:59:25;;;;;;;9.50;7.47;;;;;;;16.77;36.99;99531.50;5023247;28;20661;-70
2023/12/17 11:01:52;;;;;;;9.53;7.87;;;;;;;16.97;37.04;99524.47;5023491;28;20493;-73
2023/12/17 11:04:18;;;;;;;10.27;8.63;;;;;;;17.06;36.73;99521.97;5033245;28;20806;-71
2023/12/17 11:06:44;;;;;;;12.27;8.70;;;;;;;17.18;36.41;99508.47;5033103;28;20466;-71
2023/12/17 11:09:10;;;;;;;8.63;7.73;;;;;;;17.46;36.51;99500.63;5015161;28;21201;-70
2023/12/17 11:11:35;;;;;;;8.20;7.20;;;;;;;17.84;36.29;99495.44;5034516;28;20183;-73
2023/12/17 11:14:02;;;;;;;8.83;7.30;;;;;;;17.40;36.25;99497.69;5028336;28;20451;-72
2023/12/17 11:16:29;;;;;;;7.20;6.50;;;;;;;16.53;36.93;99494.78;5027471;28;20196;-73
2023/12/17 11:18:58;;;;;;;7.60;6.30;;;;;;;16.00;37.75;99494.03;5030080;28;21039;-71
2023/12/17 11:21:26;;;;;;;9.93;7.57;;;;;;;16.12;38.12;99495.63;5020707;28;20527;-72